createdAt,value
2023-01-26T00:02:42.647Z,-0.10
2023-01-26T00:05:29.372Z,-0.10
2023-01-26T00:08:17.143Z,-0.10
2023-01-26T00:11:06.075Z,-0.10
2023-01-26T00:13:53.398Z,0.00
2023-01-26T00:16:40.829Z,0.00
2023-01-26T00:19:27.473Z,0.00
2023-01-26T00:22:13.948Z,0.00
2023-01-26T00:25:02.012Z,0.00
2023-01-26T00:27:48.516Z,0.00
2023-01-26T00:30:35.009Z,0.00
2023-01-26T00:33:21.846Z,0.00
2023-01-26T00:36:09.960Z,-0.10
2023-01-26T00:38:57.477Z,0.00
2023-01-26T00:42:03.778Z,-0.10
2023-01-26T00:44:51.437Z,0.00
2023-01-26T00:47:37.991Z,0.00
2023-01-26T00:50:24.411Z,0.00
2023-01-26T00:53:11.159Z,0.00
2023-01-26T00:55:58.033Z,0.00
2023-01-26T00:58:45.883Z,0.00
2023-01-26T01:01:32.941Z,0.00
2023-01-26T01:04:20.057Z,0.10
2023-01-26T01:07:06.850Z,0.10
2023-01-26T01:09:53.237Z,0.10
2023-01-26T01:12:39.789Z,0.10
2023-01-26T01:15:27.738Z,0.10
2023-01-26T01:18:14.399Z,0.10
2023-01-26T01:21:00.970Z,0.10
2023-01-26T01:23:48.010Z,0.10
2023-01-26T01:26:34.571Z,0.10
2023-01-26T01:29:21.401Z,0.10
2023-01-26T01:32:09.209Z,0.20
2023-01-26T01:34:55.756Z,0.20
2023-01-26T01:37:42.299Z,0.20
2023-01-26T01:40:28.939Z,0.20
2023-01-26T01:43:15.382Z,0.20
2023-01-26T01:46:06.782Z,0.20
2023-01-26T01:49:01.340Z,0.30
2023-01-26T01:51:55.362Z,0.30
2023-01-26T01:54:49.077Z,0.30
2023-01-26T01:57:45.670Z,0.30
2023-01-26T02:00:32.609Z,0.30
2023-01-26T02:03:21.184Z,0.30
2023-01-26T02:06:15.426Z,0.30
2023-01-26T02:09:03.307Z,0.40
2023-01-26T02:11:49.997Z,0.40
2023-01-26T02:14:36.918Z,0.40
2023-01-26T02:17:23.501Z,0.40
2023-01-26T02:20:21.569Z,0.40
2023-01-26T02:23:23.299Z,0.40
2023-01-26T02:26:14.927Z,0.40
2023-01-26T02:29:04.636Z,0.40
2023-01-26T02:31:51.638Z,0.40
2023-01-26T02:34:38.360Z,0.40
2023-01-26T02:37:25.256Z,0.40
2023-01-26T02:40:26.299Z,0.50
2023-01-26T02:43:13.152Z,0.50
2023-01-26T02:45:59.639Z,0.50
2023-01-26T02:49:04.305Z,0.50
2023-01-26T02:51:51.277Z,0.50
2023-01-26T02:54:55.660Z,0.50
2023-01-26T02:57:43.224Z,0.50
2023-01-26T03:00:37.075Z,0.50
2023-01-26T03:03:41.326Z,0.50
2023-01-26T03:06:28.047Z,0.50
2023-01-26T03:09:14.756Z,0.50
2023-01-26T03:12:01.524Z,0.60
2023-01-26T03:15:07.945Z,0.50
2023-01-26T03:18:35.443Z,0.50
2023-01-26T03:21:40.446Z,0.50
2023-01-26T03:24:44.991Z,0.50
2023-01-26T03:27:39.822Z,0.60
2023-01-26T03:30:26.552Z,0.50
2023-01-26T03:33:14.292Z,0.50
2023-01-26T03:36:00.739Z,0.50
2023-01-26T03:38:48.060Z,0.60
2023-01-26T03:41:52.298Z,0.60
2023-01-26T03:44:56.862Z,0.60
2023-01-26T03:48:01.538Z,0.50
2023-01-26T03:51:07.693Z,0.50
2023-01-26T03:54:12.163Z,0.60
2023-01-26T03:56:59.045Z,0.50
2023-01-26T03:59:45.778Z,0.50
2023-01-26T04:02:50.449Z,0.50
2023-01-26T04:05:54.917Z,0.50
2023-01-26T04:08:42.957Z,0.50
2023-01-26T04:11:29.496Z,0.50
2023-01-26T04:14:49.243Z,0.50
2023-01-26T04:17:54.680Z,0.50
2023-01-26T04:20:59.185Z,0.50
2023-01-26T04:23:47.509Z,0.50
2023-01-26T04:26:36.797Z,0.50
2023-01-26T04:29:24.130Z,0.50
2023-01-26T04:32:11.254Z,0.50
2023-01-26T04:34:58.098Z,0.50
2023-01-26T04:37:44.594Z,0.50
2023-01-26T04:40:32.728Z,0.50
2023-01-26T04:43:19.589Z,0.50
2023-01-26T04:46:09.112Z,0.50
2023-01-26T04:48:55.658Z,0.50
2023-01-26T04:51:42.393Z,0.60
2023-01-26T04:54:29.238Z,0.60
2023-01-26T04:57:20.199Z,0.60
2023-01-26T05:00:10.627Z,0.60
2023-01-26T05:02:57.491Z,0.60
2023-01-26T05:05:44.775Z,0.60
2023-01-26T05:08:31.541Z,0.60
2023-01-26T05:11:18.482Z,0.60
2023-01-26T05:14:06.863Z,0.60
2023-01-26T05:16:53.592Z,0.60
2023-01-26T05:19:41.739Z,0.60
2023-01-26T05:22:30.172Z,0.60
2023-01-26T05:25:19.242Z,0.60
2023-01-26T05:28:06.757Z,0.60
2023-01-26T05:30:55.133Z,0.60
2023-01-26T05:33:41.694Z,0.60
2023-01-26T05:36:28.444Z,0.60
2023-01-26T05:39:15.357Z,0.60
2023-01-26T05:42:02.127Z,0.70
2023-01-26T05:44:50.738Z,0.60
2023-01-26T05:47:44.564Z,0.60
2023-01-26T05:50:31.208Z,0.60
2023-01-26T05:53:18.099Z,0.70
2023-01-26T05:56:04.803Z,0.70
2023-01-26T05:58:51.664Z,0.70
2023-01-26T06:01:39.263Z,0.70
2023-01-26T06:04:28.083Z,0.70
2023-01-26T06:07:15.408Z,0.70
2023-01-26T06:10:02.285Z,0.70
2023-01-26T06:12:49.062Z,0.70
2023-01-26T06:15:36.375Z,0.70
2023-01-26T06:18:23.386Z,0.70
2023-01-26T06:21:11.620Z,0.80
2023-01-26T06:23:58.550Z,0.80
2023-01-26T06:26:45.231Z,0.80
2023-01-26T06:29:32.459Z,0.80
2023-01-26T06:32:18.856Z,0.80
2023-01-26T06:35:08.371Z,0.80
2023-01-26T06:37:56.549Z,0.90
2023-01-26T06:40:43.165Z,0.90
2023-01-26T06:43:30.650Z,0.90
2023-01-26T06:46:19.401Z,0.90
2023-01-26T06:49:06.977Z,0.90
2023-01-26T06:52:05.668Z,0.90
2023-01-26T06:54:54.819Z,0.90
2023-01-26T06:57:41.364Z,0.90
2023-01-26T07:00:28.256Z,0.90
2023-01-26T07:03:15.293Z,0.80
2023-01-26T07:06:01.951Z,0.90
2023-01-26T07:08:48.789Z,0.80
2023-01-26T07:11:36.964Z,0.80
2023-01-26T07:14:23.851Z,0.80
2023-01-26T07:17:10.770Z,0.80
2023-01-26T07:19:57.464Z,0.80
2023-01-26T07:22:44.252Z,0.90
2023-01-26T07:25:31.089Z,0.90
2023-01-26T07:28:19.260Z,0.90
2023-01-26T07:31:08.257Z,0.90
2023-01-26T07:33:54.923Z,0.90
2023-01-26T07:36:41.853Z,0.90
2023-01-26T07:39:28.685Z,0.90
2023-01-26T07:42:16.058Z,0.90
2023-01-26T07:45:04.255Z,0.90
2023-01-26T07:47:50.952Z,0.90
2023-01-26T07:50:37.627Z,0.90
2023-01-26T07:53:26.247Z,0.90
2023-01-26T07:56:16.544Z,0.90
2023-01-26T07:59:03.955Z,0.90
2023-01-26T08:01:52.843Z,0.90
2023-01-26T08:04:39.526Z,0.90
2023-01-26T08:07:26.414Z,0.90
2023-01-26T08:10:14.540Z,0.90
2023-01-26T08:13:02.306Z,0.90
2023-01-26T08:15:49.000Z,0.90
2023-01-26T08:18:37.340Z,0.90
2023-01-26T08:21:24.263Z,0.90
2023-01-26T08:24:12.859Z,0.90
2023-01-26T08:26:59.778Z,0.90
2023-01-26T08:29:46.618Z,0.90
2023-01-26T08:32:33.511Z,0.90
2023-01-26T08:35:21.789Z,0.90
2023-01-26T08:38:08.629Z,1.00
2023-01-26T08:40:55.488Z,1.00
2023-01-26T08:43:42.475Z,1.00
2023-01-26T08:46:29.245Z,1.00
2023-01-26T08:49:16.304Z,1.00
2023-01-26T08:52:04.962Z,1.00
2023-01-26T08:54:51.701Z,1.00
2023-01-26T08:57:38.675Z,1.00
2023-01-26T09:00:26.115Z,1.00
2023-01-26T09:03:13.182Z,1.00
2023-01-26T09:06:01.864Z,1.00
2023-01-26T09:08:49.802Z,1.00
2023-01-26T09:11:36.505Z,1.00
2023-01-26T09:14:24.396Z,1.10
2023-01-26T09:17:11.128Z,1.10
2023-01-26T09:19:57.969Z,1.10
2023-01-26T09:22:44.999Z,1.10
2023-01-26T09:25:33.182Z,1.10
2023-01-26T09:28:20.160Z,1.10
2023-01-26T09:31:10.558Z,1.20
2023-01-26T09:33:57.570Z,1.20
2023-01-26T09:36:44.473Z,1.20
2023-01-26T09:39:31.277Z,1.20
2023-01-26T09:42:40.011Z,1.20
2023-01-26T09:45:34.592Z,1.30
2023-01-26T09:48:36.163Z,1.30
2023-01-26T09:51:33.251Z,1.30
2023-01-26T09:54:32.033Z,1.30
2023-01-26T09:57:28.131Z,1.30
2023-01-26T10:00:22.737Z,1.30
2023-01-26T10:03:25.094Z,1.40
2023-01-26T10:06:22.407Z,1.40
2023-01-26T10:09:18.302Z,1.40
2023-01-26T10:12:16.048Z,1.40
2023-01-26T10:15:16.132Z,1.40
2023-01-26T10:18:09.531Z,1.40
2023-01-26T10:21:00.706Z,1.40
2023-01-26T10:23:51.149Z,1.40
2023-01-26T10:26:38.579Z,1.40
2023-01-26T10:29:25.444Z,1.40
2023-01-26T10:32:18.342Z,1.40
2023-01-26T10:35:06.090Z,1.40
2023-01-26T10:37:53.696Z,1.50
2023-01-26T10:40:45.399Z,1.50
2023-01-26T10:43:37.921Z,1.40
2023-01-26T10:46:28.624Z,1.50
2023-01-26T10:49:17.933Z,1.50
2023-01-26T10:52:17.311Z,1.50
2023-01-26T10:55:13.657Z,1.50
2023-01-26T10:58:01.863Z,1.50
2023-01-26T11:00:57.452Z,1.50
2023-01-26T11:04:02.601Z,1.50
2023-01-26T11:06:50.538Z,1.60
2023-01-26T11:09:37.143Z,1.60
2023-01-26T11:12:27.163Z,1.60
2023-01-26T11:15:19.887Z,1.60
2023-01-26T11:18:21.105Z,1.60
2023-01-26T11:21:17.306Z,1.60
2023-01-26T11:24:17.561Z,1.70
2023-01-26T11:27:23.733Z,1.70
2023-01-26T11:30:42.750Z,1.70
2023-01-26T11:33:38.552Z,1.70
2023-01-26T11:36:39.424Z,1.70
2023-01-26T11:39:35.709Z,1.70
2023-01-26T11:42:35.843Z,1.80
2023-01-26T11:45:32.218Z,1.80
2023-01-26T11:48:32.678Z,1.80
2023-01-26T11:51:33.466Z,1.80
2023-01-26T11:54:45.499Z,1.80
2023-01-26T11:57:43.224Z,1.80
2023-01-26T12:00:41.428Z,1.80
2023-01-26T12:03:38.733Z,1.80
2023-01-26T12:06:37.288Z,1.80
2023-01-26T12:09:33.097Z,1.90
2023-01-26T12:12:33.957Z,1.90
2023-01-26T12:15:29.755Z,1.90
2023-01-26T12:18:46.864Z,1.90
2023-01-26T12:21:43.664Z,1.90
2023-01-26T12:25:08.337Z,1.90
2023-01-26T12:27:59.800Z,1.90
2023-01-26T12:30:58.642Z,1.90
2023-01-26T12:33:46.998Z,2.00
2023-01-26T12:36:49.128Z,2.00
2023-01-26T12:39:45.260Z,2.00
2023-01-26T12:42:46.574Z,2.00
2023-01-26T12:45:40.887Z,2.00
2023-01-26T12:48:42.228Z,2.00
2023-01-26T12:51:38.588Z,2.00
2023-01-26T12:54:38.314Z,2.00
2023-01-26T12:57:34.786Z,2.10
2023-01-26T13:00:27.445Z,2.10
2023-01-26T13:03:23.635Z,2.10
2023-01-26T13:06:23.144Z,2.10
2023-01-26T13:09:23.844Z,2.10
2023-01-26T13:12:56.164Z,2.10
2023-01-26T13:15:43.181Z,2.10
2023-01-26T13:18:51.230Z,2.10
2023-01-26T13:21:45.850Z,2.20
2023-01-26T13:24:48.586Z,2.20
2023-01-26T13:27:44.699Z,2.20
2023-01-26T13:30:49.569Z,2.20
2023-01-26T13:33:38.488Z,2.20
2023-01-26T13:36:25.892Z,2.20
2023-01-26T13:39:22.117Z,2.20
2023-01-26T13:42:23.655Z,2.30
2023-01-26T13:45:25.021Z,2.30
2023-01-26T13:48:17.295Z,2.30
2023-01-26T13:51:08.454Z,2.30
2023-01-26T13:54:03.374Z,2.30
2023-01-26T13:57:04.559Z,2.30
2023-01-26T13:59:53.457Z,2.40
2023-01-26T14:02:40.434Z,2.40
2023-01-26T14:05:27.015Z,2.40
2023-01-26T14:08:18.788Z,2.40
2023-01-26T14:11:17.310Z,2.40
2023-01-26T14:14:04.442Z,2.50
2023-01-26T14:16:51.610Z,2.50
2023-01-26T14:19:42.693Z,2.50
2023-01-26T14:22:29.550Z,2.50
2023-01-26T14:25:21.826Z,2.60
2023-01-26T14:28:15.665Z,2.60
2023-01-26T14:31:11.063Z,2.60
2023-01-26T14:34:00.041Z,2.70
2023-01-26T14:36:46.928Z,2.70
2023-01-26T14:39:34.162Z,2.70
2023-01-26T14:42:22.858Z,2.70
2023-01-26T14:45:14.345Z,2.80
2023-01-26T14:48:07.834Z,2.80
2023-01-26T14:50:54.694Z,2.80
2023-01-26T14:53:41.726Z,2.80
2023-01-26T14:56:38.077Z,2.90
2023-01-26T14:59:34.949Z,2.90
2023-01-26T15:02:25.907Z,2.90
2023-01-26T15:05:17.048Z,2.90
2023-01-26T15:08:07.863Z,3.00
2023-01-26T15:11:18.294Z,3.00
2023-01-26T15:14:05.349Z,3.00
2023-01-26T15:16:56.441Z,3.00
2023-01-26T15:19:44.475Z,3.10
2023-01-26T15:22:32.434Z,3.10
2023-01-26T15:25:23.443Z,3.10
2023-01-26T15:28:19.372Z,3.10
2023-01-26T15:31:07.181Z,3.10
2023-01-26T15:33:58.571Z,3.10
2023-01-26T15:36:51.255Z,3.10
2023-01-26T15:39:38.671Z,3.10
2023-01-26T15:42:28.757Z,3.10
2023-01-26T15:45:25.539Z,3.10
2023-01-26T15:48:14.473Z,3.10
2023-01-26T15:51:03.112Z,3.10
2023-01-26T15:53:50.481Z,3.10
2023-01-26T15:56:39.097Z,3.10
2023-01-26T15:59:26.060Z,3.10
2023-01-26T16:02:17.242Z,3.10
2023-01-26T16:05:04.157Z,3.10
2023-01-26T16:07:52.700Z,3.10
2023-01-26T16:10:39.713Z,3.10
2023-01-26T16:13:26.488Z,3.10
2023-01-26T16:16:14.879Z,3.10
2023-01-26T16:19:01.964Z,3.20
2023-01-26T16:21:48.957Z,3.10
2023-01-26T16:24:37.055Z,3.10
2023-01-26T16:27:23.625Z,3.10
2023-01-26T16:30:11.976Z,3.20
2023-01-26T16:32:58.802Z,3.20
2023-01-26T16:35:45.652Z,3.20
2023-01-26T16:38:32.338Z,3.20
2023-01-26T16:41:26.332Z,3.20
2023-01-26T16:44:17.064Z,3.20
2023-01-26T16:47:05.794Z,3.20
2023-01-26T16:49:52.534Z,3.20
2023-01-26T16:52:41.566Z,3.20
2023-01-26T16:55:28.142Z,3.20
2023-01-26T16:58:16.155Z,3.30
2023-01-26T17:01:03.177Z,3.20
2023-01-26T17:03:50.494Z,3.30
2023-01-26T17:06:37.043Z,3.30
2023-01-26T17:09:23.958Z,3.30
2023-01-26T17:12:11.796Z,3.30
2023-01-26T17:15:00.049Z,3.30
2023-01-26T17:17:49.731Z,3.30
2023-01-26T17:20:36.599Z,3.20
2023-01-26T17:23:23.423Z,3.20
2023-01-26T17:26:12.525Z,3.30
2023-01-26T17:28:59.668Z,3.30
2023-01-26T17:31:48.348Z,3.20
2023-01-26T17:34:35.451Z,3.20
2023-01-26T17:37:23.406Z,3.20
2023-01-26T17:40:12.320Z,3.20
2023-01-26T17:42:59.182Z,3.20
2023-01-26T17:45:45.992Z,3.20
2023-01-26T17:48:35.236Z,3.20
2023-01-26T17:51:23.743Z,3.20
2023-01-26T17:54:10.666Z,3.20
2023-01-26T17:56:57.763Z,3.20
2023-01-26T17:59:44.652Z,3.20
2023-01-26T18:02:31.935Z,3.20
2023-01-26T18:05:20.169Z,3.20
2023-01-26T18:08:07.432Z,3.20
2023-01-26T18:10:59.928Z,3.20
2023-01-26T18:13:46.945Z,3.20
2023-01-26T18:16:33.888Z,3.20
2023-01-26T18:19:20.952Z,3.20
2023-01-26T18:22:09.413Z,3.20
2023-01-26T18:24:56.428Z,3.20
2023-01-26T18:27:43.368Z,3.20
2023-01-26T18:30:30.389Z,3.20
2023-01-26T18:33:17.280Z,3.20
2023-01-26T18:36:05.875Z,3.30
2023-01-26T18:38:57.771Z,3.20
2023-01-26T18:41:44.475Z,3.30
2023-01-26T18:44:31.801Z,3.30
2023-01-26T18:47:18.561Z,3.20
2023-01-26T18:50:06.848Z,3.30
2023-01-26T18:52:53.515Z,3.20
2023-01-26T18:55:41.522Z,3.30
2023-01-26T18:58:29.464Z,3.20
2023-01-26T19:01:18.694Z,3.30
2023-01-26T19:04:07.211Z,3.30
2023-01-26T19:06:53.929Z,3.20
2023-01-26T19:09:40.649Z,3.20
2023-01-26T19:12:28.998Z,3.20
2023-01-26T19:15:15.745Z,3.20
2023-01-26T19:18:03.846Z,3.20
2023-01-26T19:20:57.106Z,3.20
2023-01-26T19:23:45.251Z,3.20
2023-01-26T19:26:33.222Z,3.20
2023-01-26T19:29:21.582Z,3.20
2023-01-26T19:32:08.545Z,3.30
2023-01-26T19:34:55.475Z,3.20
2023-01-26T19:37:42.135Z,3.30
2023-01-26T19:40:28.998Z,3.30
2023-01-26T19:43:19.014Z,3.30
2023-01-26T19:46:08.403Z,3.30
2023-01-26T19:48:55.095Z,3.30
2023-01-26T19:51:41.761Z,3.40
2023-01-26T19:54:29.213Z,3.40
2023-01-26T19:57:16.232Z,3.40
2023-01-26T20:00:06.912Z,3.50
2023-01-26T20:02:55.069Z,3.50
2023-01-26T20:05:41.971Z,3.50
2023-01-26T20:08:31.069Z,3.60
2023-01-26T20:11:19.793Z,3.60
2023-01-26T20:14:11.871Z,3.70
2023-01-26T20:16:58.359Z,3.70
2023-01-26T20:19:46.678Z,3.70
2023-01-26T20:22:34.806Z,3.80
2023-01-26T20:25:21.628Z,3.80
2023-01-26T20:28:08.332Z,3.80
2023-01-26T20:30:59.160Z,3.80
2023-01-26T20:33:48.905Z,3.90
2023-01-26T20:36:38.337Z,3.90
2023-01-26T20:39:25.212Z,3.90
2023-01-26T20:42:16.424Z,4.00
2023-01-26T20:45:03.048Z,4.00
2023-01-26T20:47:49.900Z,4.00
2023-01-26T20:50:40.119Z,4.00
2023-01-26T20:53:28.528Z,4.00
2023-01-26T20:56:17.477Z,4.00
2023-01-26T20:59:05.601Z,4.00
2023-01-26T21:01:52.172Z,4.10
2023-01-26T21:04:38.851Z,4.10
2023-01-26T21:07:28.089Z,4.10
2023-01-26T21:10:16.542Z,4.10
2023-01-26T21:13:03.318Z,4.10
2023-01-26T21:15:52.659Z,4.10
2023-01-26T21:18:39.415Z,4.10
2023-01-26T21:21:26.585Z,4.20
2023-01-26T21:24:13.168Z,4.20
2023-01-26T21:27:02.593Z,4.20
2023-01-26T21:29:49.116Z,4.20
2023-01-26T21:32:35.776Z,4.20
2023-01-26T21:35:22.146Z,4.20
2023-01-26T21:38:09.328Z,4.20
2023-01-26T21:41:00.795Z,4.20
2023-01-26T21:43:48.683Z,4.20
2023-01-26T21:46:35.865Z,4.30
2023-01-26T21:49:24.619Z,4.30
2023-01-26T21:52:28.850Z,4.30
2023-01-26T21:55:15.934Z,4.30
2023-01-26T21:58:20.211Z,4.30
2023-01-26T22:01:09.825Z,4.30
2023-01-26T22:03:57.166Z,4.30
2023-01-26T22:06:44.261Z,4.30
2023-01-26T22:09:30.923Z,4.30
2023-01-26T22:12:17.740Z,4.30
2023-01-26T22:15:05.782Z,4.30
2023-01-26T22:17:53.406Z,4.30
2023-01-26T22:20:39.881Z,4.30
2023-01-26T22:23:26.639Z,4.30
2023-01-26T22:26:16.281Z,4.30
2023-01-26T22:29:03.896Z,4.30
2023-01-26T22:31:51.290Z,4.30
2023-01-26T22:34:39.390Z,4.30
2023-01-26T22:37:26.285Z,4.30
2023-01-26T22:40:15.397Z,4.30
2023-01-26T22:43:01.874Z,4.30
2023-01-26T22:45:48.471Z,4.30
2023-01-26T22:48:36.163Z,4.30
2023-01-26T22:51:27.803Z,4.30
2023-01-26T22:56:49.304Z,4.30
2023-01-26T22:59:36.460Z,4.30
2023-01-26T23:02:23.187Z,4.30
2023-01-26T23:05:10.601Z,4.30
2023-01-26T23:07:59.432Z,4.30
2023-01-26T23:10:46.125Z,4.30
2023-01-26T23:13:33.138Z,4.30
2023-01-26T23:16:21.339Z,4.30
2023-01-26T23:19:07.940Z,4.30
2023-01-26T23:21:54.795Z,4.20
2023-01-26T23:25:03.945Z,4.20
2023-01-26T23:27:50.856Z,4.20
2023-01-26T23:30:38.113Z,4.30
2023-01-26T23:33:26.682Z,4.20
2023-01-26T23:36:15.460Z,4.20
2023-01-26T23:39:02.286Z,4.20
2023-01-26T23:41:50.825Z,4.20
2023-01-26T23:44:37.701Z,4.20
2023-01-26T23:47:24.927Z,4.20
2023-01-26T23:50:13.083Z,4.20
2023-01-26T23:53:00.680Z,4.20
2023-01-26T23:55:48.306Z,4.20
2023-01-26T23:58:37.523Z,4.20
